Time;durP1;ratioP1;P1;durP2;ratioP2;P2;SDS_P1;SDS_P2;PMS_P1;PMS_P2;Temp;Humidity;BMP_temperature;BMP_pressure;BME280_temperature;BME280_humidity;BME280_pressure;Samples;Min_cycle;Max_cycle;Signal;HPM_P1;HPM_P2
2023/07/01 00:00:45;;;;;;;24.80;22.25;;;;;;;20.60;95.13;95150.78;4989431;28;20199;-85
2023/07/01 00:03:11;;;;;;;25.85;22.50;;;;;;;20.57;95.24;95151.28;4987439;28;20231;-85
2023/07/01 00:05:38;;;;;;;24.35;21.95;;;;;;;20.51;96.08;95146.25;4988729;28;20616;-85
2023/07/01 00:08:04;;;;;;;25.35;22.65;;;;;;;20.55;95.94;95144.72;4989626;28;20215;-86
2023/07/01 00:10:31;;;;;;;25.55;22.88;;;;;;;20.59;95.99;95151.03;4988523;28;20219;-86
2023/07/01 00:12:59;;;;;;;26.35;23.65;;;;;;;20.57;95.67;95150.50;4988688;28;20220;-85
2023/07/01 00:15:28;;;;;;;24.50;22.10;;;;;;;20.57;95.79;95155.75;4989367;28;20203;-86
2023/07/01 00:17:55;;;;;;;25.02;22.42;;;;;;;20.60;95.92;95144.75;4988063;28;20242;-86
2023/07/01 00:20:21;;;;;;;25.40;22.80;;;;;;;20.57;95.87;95146.06;4988282;28;20196;-84
2023/07/01 00:22:48;;;;;;;23.95;21.55;;;;;;;20.55;95.93;95152.56;4989019;28;20228;-85
2023/07/01 00:25:14;;;;;;;23.75;21.25;;;;;;;20.58;96.52;95152.09;4989268;28;20226;-85
2023/07/01 00:27:41;;;;;;;23.15;20.77;;;;;;;20.59;96.24;95153.66;4988765;28;20222;-86
2023/07/01 00:30:10;;;;;;;24.80;22.20;;;;;;;20.50;97.80;95149.91;4989596;28;20203;-85
2023/07/01 00:32:36;;;;;;;25.13;22.10;;;;;;;20.48;97.44;95155.38;4988832;28;20235;-85
2023/07/01 00:35:03;;;;;;;23.95;21.58;;;;;;;20.45;98.61;95150.66;4987666;28;20203;-86
2023/07/01 00:37:30;;;;;;;24.65;22.08;;;;;;;20.46;98.82;95148.81;4989008;28;20239;-85
2023/07/01 00:39:56;;;;;;;23.20;20.80;;;;;;;20.45;99.46;95150.66;4989217;28;20648;-86
2023/07/01 00:42:23;;;;;;;24.17;21.40;;;;;;;20.46;98.83;95154.84;4988454;28;20246;-85
2023/07/01 00:44:50;;;;;;;23.75;21.23;;;;;;;20.43;99.71;95152.72;4988751;28;20211;-85
2023/07/01 00:47:18;;;;;;;25.77;22.15;;;;;;;20.42;99.97;95151.16;4988866;28;20211;-85
2023/07/01 00:49:45;;;;;;;24.42;21.25;;;;;;;20.40;100.00;95150.59;4986942;28;20664;-85
2023/07/01 00:52:12;;;;;;;24.83;22.23;;;;;;;20.35;100.00;95148.72;4988649;28;20235;-85
2023/07/01 00:54:39;;;;;;;24.92;22.25;;;;;;;20.32;100.00;95143.97;4989054;28;20207;-85
2023/07/01 00:57:06;;;;;;;26.95;22.80;;;;;;;20.28;100.00;95136.88;4988439;28;20382;-86
2023/07/01 00:59:33;;;;;;;23.80;21.33;;;;;;;20.33;100.00;95142.94;4988663;28;20204;-85
2023/07/01 01:02:05;;;;;;;26.42;22.02;;;;;;;20.31;100.00;95142.41;4988956;28;20223;-85
2023/07/01 01:04:38;;;;;;;23.08;20.67;;;;;;;20.41;100.00;95140.94;4989225;28;20207;-85
2023/07/01 01:07:13;;;;;;;26.17;22.85;;;;;;;20.40;100.00;95140.13;4987402;28;20203;-86
2023/07/01 01:09:46;;;;;;;26.23;22.55;;;;;;;20.32;100.00;95135.34;4988466;28;20206;-85
2023/07/01 01:12:14;;;;;;;26.13;22.85;;;;;;;20.30;100.00;95142.66;4988475;28;20231;-85
2023/07/01 01:14:43;;;;;;;25.42;21.90;;;;;;;20.36;100.00;95139.06;4988921;28;20616;-85
2023/07/01 01:17:13;;;;;;;25.70;22.67;;;;;;;20.30;100.00;95132.97;4988830;28;20212;-85
2023/07/01 01:19:45;;;;;;;28.63;23.83;;;;;;;20.32;100.00;95143.97;4987778;28;20223;-85
2023/07/01 01:22:22;;;;;;;27.13;24.10;;;;;;;20.30;100.00;95146.06;4987337;28;20224;-85
2023/07/01 01:24:53;;;;;;;26.85;22.30;;;;;;;20.22;100.00;95146.47;4991869;28;20688;-85
2023/07/01 01:27:24;;;;;;;26.13;23.10;;;;;;;20.27;100.00;95141.31;4992041;28;20211;-85
2023/07/01 01:29:52;;;;;;;26.30;23.55;;;;;;;20.31;100.00;95142.41;4992267;28;20488;-86
2023/07/01 01:32:19;;;;;;;25.75;23.00;;;;;;;20.27;100.00;95140.53;4991967;28;20232;-85
2023/07/01 01:34:46;;;;;;;27.92;24.25;;;;;;;20.29;100.00;95143.69;4991795;28;20222;-85
2023/07/01 01:37:15;;;;;;;25.65;23.05;;;;;;;20.31;100.00;95129.31;4992320;28;20517;-86
2023/07/01 01:39:46;;;;;;;28.80;24.48;;;;;;;20.32;100.00;95140.56;4990697;28;20199;-85
2023/07/01 01:42:17;;;;;;;27.73;23.45;;;;;;;20.39;100.00;95141.19;4991090;28;20222;-85
2023/07/01 01:44:51;;;;;;;27.65;24.13;;;;;;;20.41;100.00;95140.94;4991598;28;20198;-85
2023/07/01 01:47:22;;;;;;;26.55;23.75;;;;;;;20.33;100.00;95140.34;4991418;28;20210;-85
2023/07/01 01:49:53;;;;;;;28.10;25.20;;;;;;;20.37;100.00;95145.88;4991427;28;20210;-85
2023/07/01 01:52:21;;;;;;;27.05;23.13;;;;;;;20.33;100.00;95140.34;4991634;28;20636;-85
2023/07/01 01:54:50;;;;;;;27.17;24.27;;;;;;;20.30;100.00;95146.06;4989524;28;20200;-85
2023/07/01 01:57:17;;;;;;;28.60;23.60;;;;;;;20.17;100.00;95146.47;4991315;28;20208;-85
2023/07/01 01:59:44;;;;;;;25.05;22.35;;;;;;;20.16;100.00;95134.41;4991527;28;20740;-85
2023/07/01 02:02:11;;;;;;;25.02;22.33;;;;;;;20.17;100.00;95141.22;4991424;28;20704;-85
2023/07/01 02:04:39;;;;;;;24.55;21.38;;;;;;;20.17;100.00;95143.84;4991836;28;20203;-86
2023/07/01 02:07:07;;;;;;;23.98;21.10;;;;;;;20.12;100.00;95140.38;4991764;28;20211;-85
2023/07/01 02:09:34;;;;;;;22.48;20.15;;;;;;;20.04;100.00;95146.03;4991219;28;20642;-85
2023/07/01 02:12:00;;;;;;;23.88;20.25;;;;;;;19.97;100.00;95139.19;4989291;28;20266;-84
2023/07/01 02:14:27;;;;;;;20.70;18.50;;;;;;;19.97;100.00;95146.25;4991981;28;20208;-86
2023/07/01 02:16:54;;;;;;;19.77;17.67;;;;;;;19.89;100.00;95150.09;4991086;28;20614;-85
2023/07/01 02:19:20;;;;;;;19.55;17.45;;;;;;;19.95;100.00;95146.50;4990962;28;20208;-86
2023/07/01 02:21:48;;;;;;;18.45;16.50;;;;;;;19.78;99.90;95140.56;4990753;28;20215;-86
2023/07/01 02:24:15;;;;;;;19.02;16.77;;;;;;;19.73;100.00;95140.50;4990853;28;20230;-86
2023/07/01 02:26:41;;;;;;;16.65;14.88;;;;;;;19.77;99.85;95149.44;4989271;28;20581;-85
2023/07/01 02:29:08;;;;;;;17.63;15.70;;;;;;;19.72;100.00;95146.75;4991667;28;20693;-85
2023/07/01 02:31:35;;;;;;;17.00;15.20;;;;;;;19.60;100.00;95146.09;4990770;28;20254;-85
2023/07/01 02:34:02;;;;;;;15.52;13.90;;;;;;;19.54;100.00;95147.06;4990047;28;20215;-86
2023/07/01 02:36:29;;;;;;;16.63;14.82;;;;;;;19.56;100.00;95148.41;4990895;28;20210;-86
2023/07/01 02:38:56;;;;;;;15.45;13.82;;;;;;;19.58;100.00;95148.94;4990589;28;20206;-85
2023/07/01 02:41:23;;;;;;;14.95;13.45;;;;;;;19.59;100.00;95147.91;4990478;28;20202;-85
2023/07/01 02:43:49;;;;;;;14.77;13.00;;;;;;;19.67;99.45;95159.75;4989261;28;20212;-85
2023/07/01 02:46:16;;;;;;;13.77;12.38;;;;;;;19.60;99.70;95154.72;4990978;28;20299;-85
2023/07/01 02:48:42;;;;;;;13.98;12.55;;;;;;;19.62;98.05;95160.50;4990532;28;20214;-85
2023/07/01 02:51:09;;;;;;;15.02;13.30;;;;;;;19.56;99.26;95155.44;4990836;28;20234;-85
2023/07/01 02:53:35;;;;;;;13.98;12.18;;;;;;;19.59;99.12;95155.75;4990642;28;20227;-86
2023/07/01 02:56:03;;;;;;;13.63;12.23;;;;;;;19.56;99.09;95152.84;4990908;28;20734;-86
2023/07/01 02:58:30;;;;;;;12.60;11.15;;;;;;;19.61;96.65;95158.13;4990489;28;20214;-85
2023/07/01 03:00:59;;;;;;;13.05;11.75;;;;;;;19.64;95.11;95157.63;4989170;28;20207;-84
2023/07/01 03:03:26;;;;;;;13.27;10.85;;;;;;;19.64;94.40;95155.00;4991014;28;20223;-85
2023/07/01 03:05:52;;;;;;;11.93;10.40;;;;;;;19.60;94.14;95159.16;4990823;28;20637;-85
2023/07/01 03:08:19;;;;;;;11.82;10.57;;;;;;;19.57;94.10;95160.44;4990643;28;20714;-84
2023/07/01 03:10:45;;;;;;;11.23;10.13;;;;;;;19.52;94.05;95162.19;4990530;28;20681;-85
2023/07/01 03:13:13;;;;;;;11.63;9.20;;;;;;;19.45;94.04;95164.94;4990435;28;20227;-85
2023/07/01 03:15:42;;;;;;;11.55;9.35;;;;;;;19.37;93.31;95169.78;4988428;28;20250;-85
2023/07/01 03:18:09;;;;;;;10.75;9.65;;;;;;;19.28;93.70;95170.19;4990323;28;20219;-84
2023/07/01 03:20:35;;;;;;;9.93;8.93;;;;;;;19.22;93.97;95170.38;4990032;28;20541;-86
2023/07/01 03:23:02;;;;;;;10.77;9.07;;;;;;;19.08;95.18;95171.72;4990203;28;20230;-85
2023/07/01 03:25:28;;;;;;;10.93;9.82;;;;;;;19.17;94.79;95178.94;4990729;28;20207;-86
2023/07/01 03:27:55;;;;;;;10.95;9.95;;;;;;;19.16;95.14;95179.97;4989760;28;20214;-85
2023/07/01 03:30:31;;;;;;;10.23;9.23;;;;;;;19.21;94.93;95180.03;4990277;28;20203;-85
2023/07/01 03:32:57;;;;;;;11.60;9.80;;;;;;;19.16;95.09;95181.78;4988886;28;20231;-85
2023/07/01 03:35:24;;;;;;;10.98;9.70;;;;;;;19.15;93.88;95182.81;4990189;28;20210;-86
2023/07/01 03:37:50;;;;;;;9.63;8.50;;;;;;;19.17;93.13;95183.34;4989779;28;20203;-85
2023/07/01 03:40:17;;;;;;;10.48;9.20;;;;;;;19.09;94.80;95184.53;4990276;28;20195;-86
2023/07/01 03:42:44;;;;;;;10.48;8.68;;;;;;;19.07;94.75;95186.59;4990191;28;20234;-85
2023/07/01 03:45:12;;;;;;;9.50;8.35;;;;;;;18.99;94.62;95179.19;4989529;28;20699;-85
2023/07/01 03:47:45;;;;;;;9.23;8.32;;;;;;;18.93;96.31;95174.91;4988088;28;20203;-85
2023/07/01 03:50:12;;;;;;;9.57;8.30;;;;;;;18.93;96.62;95182.75;4990221;28;20231;-86
2023/07/01 03:52:40;;;;;;;9.40;8.35;;;;;;;18.92;96.22;95179.34;4989641;28;20226;-86
2023/07/01 03:55:08;;;;;;;9.18;8.30;;;;;;;18.96;95.37;95180.44;4989975;28;20215;-85
2023/07/01 03:57:35;;;;;;;8.48;7.68;;;;;;;18.95;95.43;95185.91;4989870;28;20203;-85
2023/07/01 04:00:08;;;;;;;9.10;8.20;;;;;;;18.94;95.65;95186.94;4990040;28;20443;-85
2023/07/01 04:02:35;;;;;;;9.43;8.52;;;;;;;18.92;96.08;95187.16;4989611;28;20227;-85
2023/07/01 04:05:09;;;;;;;9.02;8.15;;;;;;;18.80;97.45;95178.66;4988225;28;20216;-85
2023/07/01 04:07:36;;;;;;;8.30;7.50;;;;;;;18.72;99.19;95183.44;4989728;28;20203;-86
2023/07/01 04:10:05;;;;;;;8.00;6.95;;;;;;;18.74;99.07;95184.78;4990343;28;20200;-86
2023/07/01 04:12:32;;;;;;;8.18;7.38;;;;;;;18.70;99.27;95186.28;4989273;28;20223;-85
2023/07/01 04:14:58;;;;;;;7.32;6.63;;;;;;;18.80;98.74;95191.69;4990156;28;20199;-84
2023/07/01 04:17:24;;;;;;;9.27;6.80;;;;;;;18.74;99.59;95189.22;4989925;28;20207;-86
2023/07/01 04:19:51;;;;;;;6.68;6.07;;;;;;;18.76;98.46;95189.78;4987074;28;20829;-85
2023/07/01 04:22:19;;;;;;;7.13;6.43;;;;;;;18.84;98.40;95184.97;4989050;28;20254;-86
2023/07/01 04:24:45;;;;;;;6.50;5.90;;;;;;;18.80;98.53;95176.03;4989886;28;20208;-84
2023/07/01 04:27:12;;;;;;;6.70;6.10;;;;;;;18.84;98.06;95171.94;4989803;28;20203;-84
2023/07/01 04:29:38;;;;;;;6.15;5.60;;;;;;;18.89;97.09;95174.59;4990488;28;20215;-85
2023/07/01 04:32:05;;;;;;;6.60;6.00;;;;;;;18.95;96.54;95178.88;4989521;28;20235;-86
2023/07/01 04:34:31;;;;;;;6.85;6.15;;;;;;;18.85;98.70;95168.28;4989426;28;20204;-85
2023/07/01 04:36:58;;;;;;;5.85;5.35;;;;;;;18.91;97.20;95169.13;4988373;28;20308;-85
2023/07/01 04:39:26;;;;;;;6.30;5.70;;;;;;;19.01;96.41;95171.13;4990277;28;20588;-86
2023/07/01 04:41:52;;;;;;;6.10;5.60;;;;;;;19.01;96.27;95173.72;4989226;28;20215;-85
2023/07/01 04:44:18;;;;;;;6.53;5.93;;;;;;;19.08;95.32;95171.72;4989778;28;20707;-85
2023/07/01 04:46:45;;;;;;;6.60;6.00;;;;;;;19.01;95.62;95173.72;4989014;28;20218;-84
2023/07/01 04:49:11;;;;;;;9.15;6.32;;;;;;;18.97;96.26;95179.41;4989724;28;20211;-85
2023/07/01 04:51:38;;;;;;;6.00;5.50;;;;;;;19.03;95.71;95174.28;4988461;28;20253;-85
2023/07/01 04:54:04;;;;;;;6.25;5.75;;;;;;;19.07;95.48;95181.38;4989754;28;20211;-85
2023/07/01 04:56:32;;;;;;;6.25;5.75;;;;;;;19.09;95.41;95187.16;4989486;28;20238;-85
2023/07/01 04:59:00;;;;;;;6.47;5.88;;;;;;;19.07;95.22;95185.81;4993430;28;20730;-85
2023/07/01 05:01:27;;;;;;;6.57;5.97;;;;;;;19.10;95.89;95187.94;4993802;28;20211;-85
2023/07/01 05:03:53;;;;;;;6.90;6.30;;;;;;;19.15;95.52;95190.63;4993615;28;20785;-85
2023/07/01 05:06:20;;;;;;;6.20;5.60;;;;;;;19.21;94.95;95192.28;4993562;28;20256;-86
2023/07/01 05:08:46;;;;;;;6.63;6.03;;;;;;;19.23;94.54;95201.47;4991806;28;20210;-84
2023/07/01 05:11:13;;;;;;;7.43;5.90;;;;;;;19.25;94.54;95203.81;4993465;28;20588;-83
2023/07/01 05:13:40;;;;;;;7.13;6.53;;;;;;;19.26;94.30;95200.19;4993037;28;20576;-84
2023/07/01 05:16:07;;;;;;;6.50;5.90;;;;;;;19.23;94.78;95203.28;4993166;28;20673;-84
2023/07/01 05:18:33;;;;;;;6.75;5.78;;;;;;;19.22;93.77;95205.09;4993060;28;20204;-85
2023/07/01 05:21:00;;;;;;;7.78;6.60;;;;;;;19.24;93.88;95207.47;4981719;28;20625;-85
2023/07/01 05:23:26;;;;;;;6.47;5.88;;;;;;;19.28;93.26;95208.56;4993035;28;20223;-86
2023/07/01 05:25:53;;;;;;;7.03;6.32;;;;;;;19.28;93.24;95211.97;4991088;28;20203;-85
2023/07/01 05:28:19;;;;;;;6.57;5.97;;;;;;;19.31;92.68;95210.69;4992440;28;20204;-85
2023/07/01 05:30:47;;;;;;;6.10;5.60;;;;;;;19.29;93.21;95217.97;4993298;28;20586;-84
2023/07/01 05:33:14;;;;;;;6.75;6.03;;;;;;;19.33;93.36;95211.25;4993190;28;20235;-84
2023/07/01 05:35:41;;;;;;;7.40;5.93;;;;;;;19.26;92.98;95213.22;4993422;28;20250;-84
2023/07/01 05:38:08;;;;;;;6.20;5.60;;;;;;;19.29;92.67;95210.94;4993431;28;20200;-85
2023/07/01 05:40:35;;;;;;;6.53;5.90;;;;;;;19.24;93.44;95215.31;4991691;28;20670;-85
2023/07/01 05:43:01;;;;;;;6.43;5.82;;;;;;;19.23;94.28;95217.13;4992394;28;20227;-85
2023/07/01 05:45:28;;;;;;;6.32;5.72;;;;;;;19.27;94.14;95213.00;4993409;28;20203;-86
2023/07/01 05:47:56;;;;;;;6.30;5.70;;;;;;;19.32;93.55;95214.88;4993636;28;20215;-86
2023/07/01 05:50:22;;;;;;;6.68;6.07;;;;;;;19.30;94.26;95215.13;4993856;28;20254;-86
2023/07/01 05:52:49;;;;;;;6.25;5.65;;;;;;;19.32;93.60;95210.47;4993187;28;20231;-85
2023/07/01 05:55:16;;;;;;;6.65;5.97;;;;;;;19.37;93.41;95217.59;4993918;28;20203;-84
2023/07/01 05:57:42;;;;;;;6.35;5.70;;;;;;;19.30;95.16;95219.56;4991795;28;20669;-84
2023/07/01 06:00:13;;;;;;;6.15;5.65;;;;;;;19.31;93.97;95218.53;4994109;28;20215;-85
2023/07/01 06:02:40;;;;;;;6.38;5.65;;;;;;;19.27;94.92;95223.44;4993554;28;20234;-85
2023/07/01 06:05:09;;;;;;;11.82;6.00;;;;;;;19.31;94.86;95221.13;4993723;28;20214;-86
2023/07/01 06:07:36;;;;;;;6.32;5.78;;;;;;;19.34;94.29;95218.06;4993225;28;20681;-85
2023/07/01 06:10:02;;;;;;;5.97;5.47;;;;;;;19.37;93.59;95212.34;4994738;28;20195;-87
2023/07/01 06:12:28;;;;;;;6.10;5.15;;;;;;;19.41;93.19;95218.69;4993473;28;20243;-85
2023/07/01 06:14:55;;;;;;;6.22;5.63;;;;;;;19.40;94.04;95224.16;4994361;28;20590;-86
2023/07/01 06:17:21;;;;;;;5.90;5.40;;;;;;;19.42;92.97;95228.09;4994329;28;20207;-87
2023/07/01 06:19:48;;;;;;;5.53;5.00;;;;;;;19.48;92.71;95221.91;4992780;28;20212;-85
2023/07/01 06:22:15;;;;;;;5.90;5.28;;;;;;;19.56;92.57;95229.38;4993849;28;20235;-85
2023/07/01 06:24:42;;;;;;;6.30;5.80;;;;;;;19.61;94.19;95226.81;4993642;28;20203;-85
2023/07/01 06:27:09;;;;;;;6.90;5.15;;;;;;;19.63;93.17;95223.94;4993517;28;20199;-85
2023/07/01 06:29:36;;;;;;;6.43;5.50;;;;;;;19.68;93.07;95226.63;4991197;28;20701;-85
2023/07/01 06:32:02;;;;;;;5.80;5.20;;;;;;;19.70;91.67;95226.38;4993412;28;20250;-85
2023/07/01 06:34:28;;;;;;;6.32;5.28;;;;;;;19.75;91.94;95219.41;4992737;28;20207;-86
2023/07/01 06:36:55;;;;;;;6.22;5.03;;;;;;;19.74;91.81;95224.88;4993731;28;20230;-86
2023/07/01 06:39:22;;;;;;;5.15;4.72;;;;;;;19.69;92.63;95225.59;4993522;28;20672;-85
2023/07/01 06:41:49;;;;;;;5.25;4.72;;;;;;;19.69;93.27;95222.19;4992831;28;20763;-86
2023/07/01 06:44:15;;;;;;;5.28;4.78;;;;;;;19.71;91.57;95217.53;4993338;28;20199;-87
2023/07/01 06:46:42;;;;;;;4.80;4.40;;;;;;;19.76;91.83;95222.81;4991249;28;20637;-85
2023/07/01 06:49:09;;;;;;;4.55;4.15;;;;;;;19.77;90.03;95232.25;4993200;28;20202;-86
2023/07/01 06:51:35;;;;;;;4.88;4.47;;;;;;;19.69;90.22;95224.81;4993326;28;20294;-86
2023/07/01 06:54:01;;;;;;;4.80;4.30;;;;;;;19.66;89.01;95229.47;4993016;28;20229;-85
2023/07/01 06:56:29;;;;;;;4.78;4.30;;;;;;;19.68;89.05;95234.47;4992661;28;20203;-85
2023/07/01 06:58:56;;;;;;;4.85;4.45;;;;;;;19.67;89.44;95233.69;4992757;28;20199;-86
2023/07/01 07:01:22;;;;;;;4.68;4.28;;;;;;;19.70;88.87;95236.84;4991230;28;20484;-86
2023/07/01 07:03:49;;;;;;;5.15;4.57;;;;;;;19.74;88.95;95236.13;4992421;28;20206;-86
2023/07/01 07:06:15;;;;;;;4.65;4.25;;;;;;;19.83;87.38;95229.44;4993434;28;20210;-86
2023/07/01 07:08:42;;;;;;;4.43;4.03;;;;;;;19.85;87.82;95227.38;4992998;28;20717;-86
2023/07/01 07:11:08;;;;;;;4.70;4.30;;;;;;;19.90;88.05;95226.66;4992943;28;20204;-85
2023/07/01 07:13:36;;;;;;;4.75;4.20;;;;;;;19.94;89.30;95219.91;4993772;28;20711;-87
2023/07/01 07:16:03;;;;;;;6.40;4.47;;;;;;;19.98;87.53;95219.19;4973608;28;20227;-84
2023/07/01 07:18:29;;;;;;;4.30;3.90;;;;;;;20.05;88.63;95226.03;4987476;28;20616;-86
2023/07/01 07:20:55;;;;;;;6.30;4.30;;;;;;;20.07;86.39;95222.13;4991026;28;20874;-87
2023/07/01 07:23:22;;;;;;;7.22;4.47;;;;;;;20.05;85.50;95218.19;4992827;28;20584;-86
2023/07/01 07:25:48;;;;;;;4.90;4.43;;;;;;;19.99;85.04;95218.16;4993573;28;20211;-86
2023/07/01 07:28:16;;;;;;;4.78;4.38;;;;;;;20.12;85.85;95210.97;4992597;28;20687;-84
2023/07/01 07:30:44;;;;;;;4.65;3.97;;;;;;;20.16;84.63;95212.06;4992393;28;20203;-86
2023/07/01 07:33:10;;;;;;;4.85;3.65;;;;;;;20.30;85.22;95219.25;4990824;28;20239;-86
2023/07/01 07:35:37;;;;;;;3.85;3.55;;;;;;;20.30;82.48;95214.03;4992247;28;20226;-86
2023/07/01 07:38:04;;;;;;;4.30;3.90;;;;;;;20.24;79.68;95225.47;4992577;28;20207;-86
2023/07/01 07:40:30;;;;;;;4.15;3.85;;;;;;;20.24;80.69;95219.44;4992218;28;20864;-87
2023/07/01 07:42:57;;;;;;;5.18;4.00;;;;;;;20.29;81.34;95222.91;4991619;28;20223;-85
2023/07/01 07:45:24;;;;;;;5.18;4.13;;;;;;;20.44;80.59;95219.69;4992331;28;20215;-85
2023/07/01 07:47:52;;;;;;;4.10;3.80;;;;;;;20.43;79.48;95219.94;4992304;28;20572;-85
2023/07/01 07:50:21;;;;;;;4.40;4.03;;;;;;;20.45;78.13;95220.47;4990455;28;20215;-86
2023/07/01 07:52:48;;;;;;;4.28;3.88;;;;;;;20.51;78.18;95217.66;4990986;28;20242;-86
2023/07/01 07:55:14;;;;;;;3.80;3.50;;;;;;;20.53;77.97;95209.56;4991572;28;20702;-84
2023/07/01 07:57:40;;;;;;;4.75;3.53;;;;;;;20.71;78.63;95206.59;4991173;28;20716;-86
2023/07/01 08:00:08;;;;;;;4.20;3.85;;;;;;;20.86;75.82;95211.97;4990349;28;20206;-85
2023/07/01 08:02:37;;;;;;;3.97;3.47;;;;;;;20.77;74.63;95208.22;4990585;28;20721;-85
2023/07/01 08:05:06;;;;;;;5.95;3.85;;;;;;;20.90;77.40;95205.19;4989743;28;20207;-85
2023/07/01 08:07:32;;;;;;;4.20;3.80;;;;;;;20.91;76.39;95208.59;4990104;28;20207;-85
2023/07/01 08:09:58;;;;;;;4.50;4.10;;;;;;;20.79;74.29;95208.75;4991290;28;20278;-84
2023/07/01 08:12:25;;;;;;;4.10;3.70;;;;;;;20.80;74.35;95202.47;4990787;28;20234;-87
2023/07/01 08:14:51;;;;;;;3.85;3.55;;;;;;;20.89;74.08;95213.28;4990956;28;20266;-86
2023/07/01 08:17:18;;;;;;;4.18;3.30;;;;;;;21.01;73.24;95209.44;4990693;28;20639;-85
2023/07/01 08:19:44;;;;;;;3.70;3.40;;;;;;;21.04;72.89;95200.31;4989656;28;20917;-85
2023/07/01 08:22:15;;;;;;;3.72;3.42;;;;;;;20.94;67.17;95201.03;4989334;28;20606;-86
2023/07/01 08:24:41;;;;;;;5.47;3.60;;;;;;;20.96;68.19;95198.16;4990736;28;20618;-85
2023/07/01 08:27:08;;;;;;;5.75;3.65;;;;;;;20.90;66.97;95197.34;4990465;28;20203;-86
2023/07/01 08:29:34;;;;;;;4.10;3.60;;;;;;;20.95;68.37;95193.97;4991727;28;20207;-86
2023/07/01 08:32:01;;;;;;;3.50;3.20;;;;;;;21.00;68.11;95194.00;4991663;28;20223;-86
2023/07/01 08:34:28;;;;;;;4.90;3.70;;;;;;;21.07;67.75;95194.56;4994427;28;20700;-85
2023/07/01 08:36:54;;;;;;;3.53;3.22;;;;;;;21.22;66.01;95191.28;4995001;28;21015;-85
2023/07/01 08:39:24;;;;;;;4.88;3.40;;;;;;;21.33;66.29;95182.47;4993488;28;20203;-85
2023/07/01 08:41:56;;;;;;;3.55;3.25;;;;;;;21.48;66.23;95179.16;4994375;28;20227;-86
2023/07/01 08:44:23;;;;;;;5.38;3.38;;;;;;;21.60;64.07;95175.25;4994579;28;20206;-85
2023/07/01 08:46:53;;;;;;;3.80;3.45;;;;;;;21.44;61.97;95173.63;4993089;28;20199;-86
2023/07/01 08:49:22;;;;;;;3.85;3.40;;;;;;;21.65;64.24;95174.50;4994249;28;20203;-85
2023/07/01 08:51:52;;;;;;;3.58;3.10;;;;;;;21.84;65.78;95169.59;4993787;28;20728;-85
2023/07/01 08:54:19;;;;;;;3.60;3.30;;;;;;;21.92;63.98;95171.75;4992388;28;20231;-85
2023/07/01 08:56:49;;;;;;;3.30;2.92;;;;;;;21.60;57.38;95167.41;4993558;28;20639;-86
2023/07/01 08:59:16;;;;;;;3.83;3.08;;;;;;;21.52;60.03;95170.53;4994042;28;20222;-85
2023/07/01 09:01:43;;;;;;;3.63;3.28;;;;;;;21.49;61.29;95173.66;4993933;28;20231;-85
2023/07/01 09:04:10;;;;;;;4.90;3.15;;;;;;;21.58;63.04;95171.31;4994191;28;20231;-85
2023/07/01 09:06:36;;;;;;;3.63;3.33;;;;;;;21.79;62.23;95165.13;4993804;28;20207;-86
2023/07/01 09:09:03;;;;;;;3.47;3.17;;;;;;;21.99;60.67;95167.81;4994195;28;20207;-85
2023/07/01 09:11:29;;;;;;;3.58;3.25;;;;;;;22.16;60.17;95165.00;4991838;28;20200;-84
2023/07/01 09:13:57;;;;;;;4.97;3.45;;;;;;;22.19;59.90;95161.88;4993320;28;20800;-85
2023/07/01 09:16:32;;;;;;;4.32;3.20;;;;;;;22.30;60.06;95160.84;4993422;28;20206;-86
2023/07/01 09:19:06;;;;;;;3.92;2.90;;;;;;;22.19;58.77;95158.44;4993506;28;20730;-85
2023/07/01 09:21:32;;;;;;;3.67;2.50;;;;;;;22.52;56.37;95154.56;4992363;28;20203;-84
2023/07/01 09:23:59;;;;;;;4.55;2.45;;;;;;;22.80;54.35;95153.28;4993536;28;20231;-85
2023/07/01 09:26:30;;;;;;;3.70;2.50;;;;;;;22.89;55.01;95147.25;4992846;28;20237;-85
2023/07/01 09:29:19;;;;;;;3.50;2.60;;;;;;;22.81;54.58;95154.88;4993563;28;20207;-85
2023/07/01 09:31:51;;;;;;;3.20;2.90;;;;;;;22.40;54.69;95150.34;4993908;28;20216;-84
2023/07/01 09:34:20;;;;;;;2.70;2.50;;;;;;;22.53;56.31;95151.66;4994027;28;20329;-86
2023/07/01 09:36:50;;;;;;;3.20;3.00;;;;;;;22.55;56.97;95154.81;4994154;28;20711;-85
2023/07/01 09:39:41;;;;;;;;;;;;;;;;;;;;;
2023/07/01 09:42:08;;;;;;;4.35;2.97;;;;;;;22.63;56.87;95143.03;4990945;28;20231;-86
2023/07/01 09:44:40;;;;;;;4.05;2.67;;;;;;;22.57;55.76;95154.56;4993604;28;20208;-85
2023/07/01 09:47:18;;;;;;;3.60;3.30;;;;;;;22.38;55.92;95144.59;4992897;28;20600;-85
2023/07/01 09:49:45;;;;;;;3.78;2.90;;;;;;;22.15;55.21;95145.06;4993005;28;20210;-85
2023/07/01 09:52:13;;;;;;;2.88;2.67;;;;;;;22.10;56.82;95136.41;4992680;28;20227;-85
2023/07/01 09:54:42;;;;;;;3.15;2.90;;;;;;;22.03;56.42;95140.06;4992588;28;20286;-86
2023/07/01 09:57:08;;;;;;;3.80;2.78;;;;;;;22.08;56.66;95141.13;4993217;28;20203;-85
2023/07/01 09:59:37;;;;;;;5.40;3.13;;;;;;;22.10;56.84;95131.97;4991240;28;20208;-86
2023/07/01 10:02:04;;;;;;;3.17;2.70;;;;;;;22.01;57.05;95129.06;4992994;28;20235;-85
2023/07/01 10:04:31;;;;;;;3.97;3.58;;;;;;;22.03;56.94;95126.97;4992954;28;20238;-86
2023/07/01 10:06:57;;;;;;;2.97;2.78;;;;;;;22.03;56.15;95136.66;4992805;28;20203;-85
2023/07/01 10:09:27;;;;;;;3.10;2.80;;;;;;;22.17;56.72;95127.25;4992723;28;20215;-85
2023/07/01 10:11:57;;;;;;;4.50;2.55;;;;;;;22.32;56.14;95126.50;4992347;28;20254;-84
2023/07/01 10:14:25;;;;;;;4.10;2.80;;;;;;;22.29;55.71;95122.56;4990867;28;20253;-85
2023/07/01 10:16:53;;;;;;;2.70;2.50;;;;;;;22.55;54.74;95123.34;4993049;28;20211;-86
2023/07/01 10:19:27;;;;;;;3.20;2.92;;;;;;;22.74;54.64;95118.34;4991724;28;20208;-85
2023/07/01 10:21:54;;;;;;;3.25;2.95;;;;;;;22.94;53.40;95113.09;4992281;28;20638;-87
2023/07/01 10:24:38;;;;;;;6.93;2.92;;;;;;;23.15;52.50;95113.06;4992544;28;20203;-86
2023/07/01 10:27:04;;;;;;;3.10;2.58;;;;;;;23.19;51.92;95116.72;4992116;28;20210;-86
2023/07/01 10:29:54;;;;;;;2.95;2.75;;;;;;;23.24;51.38;95108.84;4992274;28;20203;-85
2023/07/01 10:32:32;;;;;;;3.80;2.67;;;;;;;23.25;52.13;95105.16;4990602;28;20278;-85
2023/07/01 10:35:09;;;;;;;3.45;2.70;;;;;;;23.12;51.44;95103.06;4992094;28;20250;-85
2023/07/01 10:37:36;;;;;;;2.70;2.50;;;;;;;22.98;51.31;95106.28;4992155;28;20260;-86
2023/07/01 10:40:08;;;;;;;2.75;2.42;;;;;;;22.90;52.39;95101.53;4992340;28;20204;-86
2023/07/01 10:42:36;;;;;;;2.92;2.65;;;;;;;22.90;50.72;95093.66;4991672;28;20246;-85
2023/07/01 10:45:39;;;;;;;3.33;2.65;;;;;;;22.88;51.80;95102.88;4992102;28;20302;-86
2023/07/01 10:48:16;;;;;;;2.78;2.58;;;;;;;22.81;52.34;95094.50;4985418;28;20210;-86
2023/07/01 10:51:03;;;;;;;3.03;2.80;;;;;;;23.19;51.77;95093.09;4991621;28;20743;-85
2023/07/01 10:53:39;;;;;;;2.65;2.45;;;;;;;23.18;50.47;95086.25;4991630;28;20251;-85
2023/07/01 10:56:13;;;;;;;2.65;2.45;;;;;;;23.31;50.74;95090.94;4990030;28;20238;-84
2023/07/01 10:58:47;;;;;;;3.33;2.90;;;;;;;23.29;50.74;95083.31;4991558;28;20242;-85
2023/07/01 11:02:00;;;;;;;4.18;2.60;;;;;;;23.34;49.95;95066.75;4989858;28;20288;-86
2023/07/01 11:05:07;;;;;;;3.55;2.72;;;;;;;23.56;54.98;95072.47;4987711;28;20783;-84
2023/07/01 11:07:36;;;;;;;3.00;2.67;;;;;;;23.97;54.00;95069.63;4990407;28;20199;-83
2023/07/01 11:10:09;;;;;;;2.28;2.15;;;;;;;24.19;51.37;95071.84;4992329;28;20254;-88
2023/07/01 11:12:55;;;;;;;3.95;2.47;;;;;;;24.27;51.99;95066.03;4984405;28;20224;-88
2023/07/01 11:15:22;;;;;;;2.70;2.50;;;;;;;24.25;51.07;95070.78;4973475;28;20321;-86
2023/07/01 11:17:58;;;;;;;2.80;2.50;;;;;;;24.21;51.25;95060.00;4990341;28;20203;-90
2023/07/01 11:20:43;;;;;;;;;;;;;;;;;;;;;
2023/07/01 11:23:11;;;;;;;4.68;2.63;;;;;;;24.16;49.92;95051.34;4987481;28;20696;-88
2023/07/01 11:26:34;;;;;;;3.65;3.00;;;;;;;24.00;50.52;95048.06;4988896;28;20195;-89
2023/07/01 11:29:24;;;;;;;4.53;2.38;;;;;;;23.85;51.18;95050.78;4968313;28;20212;-88
2023/07/01 11:31:58;;;;;;;5.68;2.70;;;;;;;23.79;48.95;95044.75;4977460;28;20219;-84
2023/07/01 11:34:24;;;;;;;3.60;2.45;;;;;;;23.82;49.89;95043.44;4989233;28;20247;-86
2023/07/01 11:36:52;;;;;;;4.03;2.40;;;;;;;23.88;49.68;95039.69;4987660;28;20233;-85